Time;durP1;ratioP1;P1;durP2;ratioP2;P2;SDS_P1;SDS_P2;PMS_P1;PMS_P2;Temp;Humidity;BMP_temperature;BMP_pressure;BME280_temperature;BME280_humidity;BME280_pressure;Samples;Min_cycle;Max_cycle;Signal;HPM_P1;HPM_P2
2022/03/17 00:00:38;;;;;;;6.38;2.10;;;26.50;99.90;;;;;;4911147;29;20390;-74
2022/03/17 00:03:06;;;;;;;4.65;1.90;;;26.80;99.90;;;;;;4934497;29;20163;-73
2022/03/17 00:05:33;;;;;;;6.25;2.88;;;26.80;99.90;;;;;;4915113;29;20028;-74
2022/03/17 00:08:01;;;;;;;8.43;2.38;;;26.80;99.90;;;;;;4905568;29;20243;-74
2022/03/17 00:10:31;;;;;;;8.00;2.28;;;26.70;99.90;;;;;;4911475;29;20032;-74
2022/03/17 00:13:00;;;;;;;5.35;1.73;;;26.50;99.90;;;;;;4913943;29;20043;-73
2022/03/17 00:15:29;;;;;;;3.08;1.75;;;26.50;99.90;;;;;;4914742;29;20067;-73
2022/03/17 00:17:58;;;;;;;3.97;1.63;;;26.50;99.90;;;;;;4921602;29;20036;-73
2022/03/17 00:20:31;;;;;;;2.97;1.50;;;26.60;99.90;;;;;;4915723;29;20561;-73
2022/03/17 00:23:00;;;;;;;6.85;2.25;;;26.70;99.90;;;;;;4917532;29;20025;-74
2022/03/17 00:25:29;;;;;;;4.10;1.90;;;26.70;99.90;;;;;;4915987;29;20028;-74
2022/03/17 00:27:59;;;;;;;3.53;1.25;;;27.00;99.90;;;;;;4924690;29;20035;-74
2022/03/17 00:30:29;;;;;;;3.55;2.55;;;27.60;99.90;;;;;;4923614;29;20132;-75
2022/03/17 00:32:57;;;;;;;4.63;2.25;;;27.60;99.90;;;;;;4906982;29;20024;-75
2022/03/17 00:35:38;;;;;;;4.22;2.03;;;28.20;99.90;;;;;;4912850;29;20427;-75
2022/03/17 00:38:15;;;;;;;5.05;2.47;;;29.10;99.90;;;;;;4908308;29;20050;-75
2022/03/17 00:40:44;;;;;;;6.18;2.28;;;29.20;99.90;;;;;;4909111;29;20035;-76
2022/03/17 00:43:14;;;;;;;4.50;1.75;;;29.00;99.90;;;;;;4898783;29;20479;-74
2022/03/17 00:45:43;;;;;;;6.38;1.70;;;29.40;99.90;;;;;;4911476;29;20035;-74
2022/03/17 00:48:11;;;;;;;9.45;1.95;;;29.80;99.90;;;;;;4909743;29;20032;-74
2022/03/17 00:50:39;;;;;;;7.03;2.15;;;29.90;99.90;;;;;;4921431;29;20064;-74
2022/03/17 00:53:07;;;;;;;3.38;2.17;;;29.70;99.70;;;;;;4906869;29;20040;-75
2022/03/17 00:55:35;;;;;;;5.88;1.90;;;29.50;99.90;;;;;;4923962;29;20032;-74
2022/03/17 00:58:03;;;;;;;3.25;1.67;;;29.60;99.90;;;;;;4905897;29;20394;-74
2022/03/17 01:00:32;;;;;;;4.00;1.65;;;29.70;99.70;;;;;;4905436;29;20034;-75
2022/03/17 01:03:01;;;;;;;5.97;2.72;;;30.10;99.40;;;;;;4918086;29;20435;-75
2022/03/17 01:05:30;;;;;;;7.25;2.35;;;29.80;99.40;;;;;;4899222;29;20855;-75
2022/03/17 01:08:00;;;;;;;2.63;1.80;;;29.40;99.90;;;;;;4919892;29;20051;-74
2022/03/17 01:10:27;;;;;;;8.48;2.17;;;29.20;99.60;;;;;;4903979;29;20048;-75
2022/03/17 01:12:56;;;;;;;6.18;2.40;;;29.40;99.90;;;;;;4907461;29;20028;-74
2022/03/17 01:15:23;;;;;;;5.63;2.15;;;29.50;99.30;;;;;;4909395;29;20498;-75
2022/03/17 01:17:52;;;;;;;7.30;2.78;;;29.70;99.20;;;;;;4908500;29;20123;-76
2022/03/17 01:20:20;;;;;;;5.47;2.53;;;30.00;99.10;;;;;;4913644;29;20035;-75
2022/03/17 01:22:48;;;;;;;2.83;1.90;;;30.00;99.10;;;;;;4908624;29;20028;-75
2022/03/17 01:25:16;;;;;;;4.30;2.50;;;29.90;99.00;;;;;;4908475;29;20043;-76
2022/03/17 01:27:45;;;;;;;5.50;2.72;;;30.00;99.10;;;;;;4911464;29;20035;-75
2022/03/17 01:30:13;;;;;;;5.15;3.50;;;30.30;99.10;;;;;;4914399;29;20340;-75
2022/03/17 01:32:41;;;;;;;4.90;2.85;;;30.00;99.40;;;;;;4899399;29;20546;-75
2022/03/17 01:35:10;;;;;;;4.60;2.97;;;30.20;99.20;;;;;;4914274;29;20108;-75
2022/03/17 01:37:38;;;;;;;6.57;3.35;;;30.70;99.10;;;;;;4911060;29;20111;-74
2022/03/17 01:40:08;;;;;;;5.07;3.25;;;30.60;98.20;;;;;;4913256;29;20033;-73
2022/03/17 01:42:39;;;;;;;5.20;2.55;;;30.50;98.00;;;;;;4909265;29;20491;-74
2022/03/17 01:45:08;;;;;;;10.05;3.92;;;30.60;98.10;;;;;;4914422;29;20435;-75
2022/03/17 01:47:40;;;;;;;4.78;3.75;;;30.70;98.00;;;;;;4905817;29;20060;-75
2022/03/17 01:50:16;;;;;;;9.55;3.40;;;30.70;98.50;;;;;;4906760;29;20051;-76
2022/03/17 01:52:48;;;;;;;6.57;3.45;;;30.50;98.10;;;;;;4907732;29;20554;-74
2022/03/17 01:55:17;;;;;;;5.78;3.53;;;30.40;98.60;;;;;;4906165;29;20085;-74
2022/03/17 01:57:46;;;;;;;4.03;2.60;;;30.50;98.10;;;;;;4909360;29;20064;-74
2022/03/17 02:00:19;;;;;;;5.70;2.50;;;30.20;98.10;;;;;;4903409;29;20116;-75
2022/03/17 02:02:48;;;;;;;4.63;2.22;;;30.00;98.00;;;;;;4906750;29;20482;-74
2022/03/17 02:05:17;;;;;;;3.65;2.45;;;30.00;98.80;;;;;;4908190;29;20036;-77
2022/03/17 02:07:52;;;;;;;4.30;1.80;;;30.10;99.00;;;;;;4907170;29;20040;-74
2022/03/17 02:10:24;;;;;;;6.85;1.70;;;30.40;97.40;;;;;;4920651;29;20103;-75
2022/03/17 02:13:10;;;;;;;2.28;1.60;;;30.20;97.20;;;;;;4910480;29;20032;-76
2022/03/17 02:15:37;;;;;;;2.90;1.55;;;30.20;97.20;;;;;;4909567;29;20040;-73
2022/03/17 02:18:06;;;;;;;4.18;1.73;;;30.50;97.70;;;;;;4910546;29;20024;-75
2022/03/17 02:20:35;;;;;;;2.30;1.40;;;30.70;97.60;;;;;;4910059;29;20107;-76
2022/03/17 02:25:57;;;;;;;5.38;2.33;;;30.40;96.80;;;;;;4910493;29;20151;-76
2022/03/17 02:28:27;;;;;;;2.95;1.30;;;30.60;96.70;;;;;;4913240;29;20033;-75
2022/03/17 02:30:55;;;;;;;4.78;1.92;;;30.50;97.20;;;;;;4912352;29;20036;-74
2022/03/17 02:33:24;;;;;;;2.15;1.40;;;30.50;97.20;;;;;;4917977;29;20407;-73
2022/03/17 02:35:53;;;;;;;2.78;1.25;;;30.50;97.30;;;;;;4912697;29;20032;-74
2022/03/17 02:38:22;;;;;;;3.17;1.17;;;30.40;97.40;;;;;;4911810;29;20039;-73
2022/03/17 02:40:52;;;;;;;5.03;1.55;;;30.10;96.80;;;;;;4909648;29;20078;-76
2022/03/17 02:43:20;;;;;;;5.43;1.85;;;30.10;97.10;;;;;;4909634;29;20480;-74
2022/03/17 02:45:50;;;;;;;2.35;1.55;;;30.00;98.10;;;;;;4899941;29;20032;-74
2022/03/17 02:48:18;;;;;;;2.67;1.27;;;30.00;97.50;;;;;;4907451;29;20702;-73
2022/03/17 02:50:46;;;;;;;2.72;1.40;;;30.20;97.30;;;;;;4911469;29;20040;-73
2022/03/17 02:53:15;;;;;;;3.25;1.52;;;30.30;96.80;;;;;;4913279;29;20044;-74
2022/03/17 02:55:44;;;;;;;1.60;1.33;;;30.20;96.70;;;;;;4902685;29;20024;-74
2022/03/17 02:58:13;;;;;;;3.97;1.45;;;30.20;97.60;;;;;;4917543;29;20036;-74
2022/03/17 03:00:40;;;;;;;3.47;1.23;;;30.00;97.40;;;;;;4914794;29;20115;-74
2022/03/17 03:03:08;;;;;;;3.30;1.23;;;29.80;97.80;;;;;;4909606;29;20835;-73
2022/03/17 03:05:36;;;;;;;3.30;1.30;;;29.50;97.70;;;;;;4916066;29;20055;-74
2022/03/17 03:08:03;;;;;;;4.10;1.60;;;29.60;97.50;;;;;;4903649;29;20049;-74
2022/03/17 03:10:31;;;;;;;4.40;1.75;;;29.60;97.40;;;;;;4912310;29;20079;-73
2022/03/17 03:12:59;;;;;;;3.10;1.30;;;29.80;97.60;;;;;;4902592;29;20037;-74
2022/03/17 03:15:27;;;;;;;1.73;1.02;;;29.90;97.40;;;;;;4908841;29;20035;-73
2022/03/17 03:17:56;;;;;;;3.47;0.88;;;30.10;97.00;;;;;;4912429;29;20378;-74
2022/03/17 03:20:23;;;;;;;2.58;1.27;;;30.40;96.30;;;;;;4910241;29;20385;-74
2022/03/17 03:22:51;;;;;;;4.32;1.17;;;30.50;96.00;;;;;;4913480;29;20438;-75
2022/03/17 03:25:18;;;;;;;2.15;1.08;;;30.00;96.10;;;;;;4914242;29;20036;-75
2022/03/17 03:27:45;;;;;;;3.30;1.80;;;30.00;97.00;;;;;;4903383;29;20027;-74
2022/03/17 03:30:14;;;;;;;4.93;1.33;;;30.00;96.20;;;;;;4909309;29;20036;-74
2022/03/17 03:32:47;;;;;;;5.43;1.65;;;29.80;95.90;;;;;;4911876;29;20032;-74
2022/03/17 03:38:00;;;;;;;;;;;29.90;97.60;;;;;;4909464;29;20103;-73
2022/03/17 03:40:28;;;;;;;3.60;1.30;;;29.90;96.00;;;;;;4912378;29;19940;-74
2022/03/17 03:42:55;;;;;;;2.20;0.98;;;29.80;96.40;;;;;;4900522;29;20029;-74
2022/03/17 03:45:22;;;;;;;2.72;1.40;;;29.80;96.30;;;;;;4911961;29;20047;-74
2022/03/17 03:47:50;;;;;;;2.17;0.80;;;30.10;96.20;;;;;;4909874;29;20410;-73
2022/03/17 03:50:17;;;;;;;2.28;0.80;;;30.40;96.20;;;;;;4904927;29;20048;-74
2022/03/17 03:52:45;;;;;;;1.77;1.15;;;30.60;95.20;;;;;;4905585;29;20024;-73
2022/03/17 03:55:12;;;;;;;3.88;1.20;;;30.60;95.40;;;;;;4915195;29;20055;-74
2022/03/17 03:57:40;;;;;;;2.33;0.65;;;30.70;95.20;;;;;;4912753;29;20048;-74
2022/03/17 04:02:55;;;;;;;3.03;0.80;;;30.60;94.80;;;;;;4911115;29;20734;-74
2022/03/17 04:05:29;;;;;;;2.67;1.27;;;30.60;95.50;;;;;;4914842;29;20486;-74
2022/03/17 04:07:57;;;;;;;5.35;1.30;;;30.60;95.80;;;;;;4910142;29;20052;-75
2022/03/17 04:10:26;;;;;;;2.05;0.90;;;30.60;95.90;;;;;;4912520;29;20084;-73
2022/03/17 04:12:54;;;;;;;2.28;1.15;;;30.40;95.10;;;;;;4914001;29;20035;-74
2022/03/17 04:15:22;;;;;;;1.40;0.70;;;30.40;96.10;;;;;;4920461;29;20138;-74
2022/03/17 04:17:50;;;;;;;3.88;1.15;;;30.50;95.30;;;;;;4910912;29;20174;-75
2022/03/17 04:20:17;;;;;;;5.88;1.10;;;30.40;94.80;;;;;;4911989;29;20039;-75
2022/03/17 04:22:45;;;;;;;3.58;1.05;;;30.30;94.90;;;;;;4926356;29;20039;-76
2022/03/17 04:25:12;;;;;;;1.50;0.57;;;30.30;95.30;;;;;;4914984;29;20107;-74
2022/03/17 04:27:41;;;;;;;3.80;1.20;;;30.30;95.30;;;;;;4911854;29;20896;-76
2022/03/17 04:30:09;;;;;;;7.30;1.20;;;30.40;95.00;;;;;;4912704;29;20044;-75
2022/03/17 04:32:37;;;;;;;2.05;0.80;;;30.50;95.10;;;;;;4909210;29;20028;-75
2022/03/17 04:35:04;;;;;;;3.55;0.70;;;30.50;95.50;;;;;;4914315;29;20415;-75
2022/03/17 04:37:32;;;;;;;2.03;0.82;;;30.50;95.60;;;;;;4905437;29;20060;-75
2022/03/17 04:39:59;;;;;;;4.78;1.23;;;30.20;95.50;;;;;;4902602;29;20055;-75
2022/03/17 04:42:27;;;;;;;2.97;0.70;;;30.10;95.60;;;;;;4908333;29;20032;-74
2022/03/17 04:44:55;;;;;;;1.20;0.95;;;29.90;95.20;;;;;;4907778;29;20114;-74
2022/03/17 04:47:22;;;;;;;2.58;0.82;;;29.80;95.20;;;;;;4912594;29;20479;-75
2022/03/17 04:49:50;;;;;;;2.53;0.60;;;29.90;95.90;;;;;;4913235;29;20048;-74
2022/03/17 04:55:03;;;;;;;1.63;0.73;;;30.00;95.70;;;;;;4902961;29;20493;-75
2022/03/17 04:57:30;;;;;;;5.72;1.23;;;29.90;95.80;;;;;;4910181;29;20070;-74
2022/03/17 04:59:57;;;;;;;2.50;0.70;;;29.80;95.70;;;;;;4904880;29;20048;-74
2022/03/17 05:02:25;;;;;;;1.58;1.15;;;29.70;95.80;;;;;;4910469;29;20050;-73
2022/03/17 05:04:52;;;;;;;1.83;0.57;;;29.50;95.50;;;;;;4909347;29;20124;-76
2022/03/17 05:07:20;;;;;;;4.47;0.80;;;29.50;95.50;;;;;;4903806;29;20147;-75
2022/03/17 05:09:48;;;;;;;1.42;0.88;;;29.40;95.50;;;;;;4910712;29;20040;-74
2022/03/17 05:12:15;;;;;;;0.93;0.60;;;29.40;95.40;;;;;;4908118;29;20040;-75
2022/03/17 05:14:46;;;;;;;2.83;0.70;;;29.50;95.60;;;;;;4906522;29;20126;-74
2022/03/17 05:17:13;;;;;;;3.05;0.70;;;29.70;95.90;;;;;;4907456;29;20028;-73
2022/03/17 05:19:41;;;;;;;1.88;0.55;;;29.90;95.90;;;;;;4910601;29;20719;-75
2022/03/17 05:22:08;;;;;;;1.20;0.73;;;30.00;95.50;;;;;;4909600;29;20024;-76
2022/03/17 05:24:36;;;;;;;2.13;1.10;;;29.90;95.50;;;;;;4908342;29;20031;-75
2022/03/17 05:27:03;;;;;;;1.75;0.60;;;29.80;95.20;;;;;;4906123;29;20060;-77
2022/03/17 05:29:30;;;;;;;3.22;0.70;;;29.70;95.30;;;;;;4910222;29;20044;-76
2022/03/17 05:31:58;;;;;;;1.60;0.57;;;29.60;94.70;;;;;;4907179;29;20055;-77
2022/03/17 05:34:25;;;;;;;2.45;0.55;;;29.50;95.40;;;;;;4908699;29;20044;-76
2022/03/17 05:36:52;;;;;;;1.42;0.73;;;29.40;95.10;;;;;;4912156;29;20442;-76
2022/03/17 05:39:20;;;;;;;2.95;0.68;;;29.30;94.80;;;;;;4905579;29;20024;-76
2022/03/17 05:41:47;;;;;;;1.05;0.55;;;29.10;95.60;;;;;;4910499;29;20087;-74
2022/03/17 05:44:15;;;;;;;4.35;0.95;;;29.10;96.00;;;;;;4909117;29;20109;-75
2022/03/17 05:46:42;;;;;;;1.15;0.70;;;29.00;95.00;;;;;;4909229;29;20043;-77
2022/03/17 05:49:10;;;;;;;1.42;0.60;;;29.00;95.30;;;;;;4903780;29;20086;-76
2022/03/17 05:51:37;;;;;;;2.50;0.70;;;28.90;95.60;;;;;;4906078;29;20087;-74
2022/03/17 05:54:07;;;;;;;1.63;0.60;;;28.90;95.70;;;;;;4910984;29;20028;-75
2022/03/17 05:56:35;;;;;;;2.30;0.90;;;29.00;95.70;;;;;;4909477;29;20102;-76
2022/03/17 05:59:03;;;;;;;1.27;0.38;;;28.90;95.50;;;;;;4911245;29;20059;-75
2022/03/17 06:01:30;;;;;;;3.22;0.98;;;28.90;95.70;;;;;;4913406;29;20047;-74
2022/03/17 06:04:00;;;;;;;2.40;0.60;;;29.00;95.70;;;;;;4912860;29;20055;-75
2022/03/17 06:06:27;;;;;;;2.13;0.70;;;29.00;95.90;;;;;;4913843;29;20035;-76
2022/03/17 06:08:58;;;;;;;2.40;0.60;;;29.10;96.10;;;;;;4912536;29;20383;-76
2022/03/17 06:11:25;;;;;;;2.42;0.90;;;29.00;95.80;;;;;;4916310;29;20032;-75
2022/03/17 06:13:57;;;;;;;1.48;0.60;;;29.00;95.80;;;;;;4912800;29;20487;-76
2022/03/17 06:16:24;;;;;;;1.90;0.65;;;29.10;95.60;;;;;;4910935;29;20074;-75
2022/03/17 06:18:51;;;;;;;2.90;0.40;;;29.10;95.50;;;;;;4908199;29;20032;-74
2022/03/17 06:21:19;;;;;;;2.55;0.73;;;29.10;96.00;;;;;;4910676;29;20020;-74
2022/03/17 06:23:46;;;;;;;1.50;0.63;;;29.10;96.10;;;;;;4912448;29;20598;-74
2022/03/17 06:26:13;;;;;;;2.65;0.63;;;29.10;95.60;;;;;;4915418;29;20035;-75
2022/03/17 06:28:41;;;;;;;1.55;0.60;;;29.00;95.70;;;;;;4914158;29;20538;-74
2022/03/17 06:31:08;;;;;;;1.60;0.93;;;28.80;95.60;;;;;;4916911;29;20063;-73
2022/03/17 06:33:36;;;;;;;4.70;0.75;;;28.70;96.30;;;;;;4912047;29;20054;-74
2022/03/17 06:36:03;;;;;;;1.23;0.30;;;28.70;95.80;;;;;;4925169;29;20525;-74
2022/03/17 06:38:30;;;;;;;2.35;0.63;;;28.70;95.90;;;;;;4912605;29;20044;-74
2022/03/17 06:40:58;;;;;;;1.40;0.63;;;28.70;95.70;;;;;;4906308;29;20667;-72
2022/03/17 06:43:25;;;;;;;4.00;1.10;;;28.60;95.90;;;;;;4909106;29;20032;-74
2022/03/17 06:45:53;;;;;;;4.38;0.70;;;28.60;95.50;;;;;;4913835;29;20028;-74
2022/03/17 06:48:20;;;;;;;2.20;0.55;;;28.50;95.80;;;;;;4914209;29;20084;-74
2022/03/17 06:50:47;;;;;;;3.03;0.50;;;28.30;95.80;;;;;;4910176;29;20043;-76
2022/03/17 06:53:15;;;;;;;4.05;0.60;;;28.20;95.60;;;;;;4904620;29;20391;-76
2022/03/17 06:55:42;;;;;;;2.22;0.73;;;28.10;95.50;;;;;;4906982;29;20048;-76
2022/03/17 06:58:10;;;;;;;1.35;0.35;;;28.00;95.80;;;;;;4914781;29;20040;-76
2022/03/17 07:00:37;;;;;;;2.50;0.52;;;27.90;96.10;;;;;;4910303;29;20103;-75
2022/03/17 07:03:04;;;;;;;1.33;0.47;;;27.90;96.00;;;;;;4916171;29;20024;-76
2022/03/17 07:05:32;;;;;;;1.63;0.50;;;27.80;96.50;;;;;;4908526;29;20491;-74
2022/03/17 07:07:59;;;;;;;1.13;0.50;;;27.90;95.80;;;;;;4912471;29;20135;-76
2022/03/17 07:10:29;;;;;;;3.22;0.60;;;27.80;95.70;;;;;;4910251;29;20040;-75
2022/03/17 07:12:57;;;;;;;1.05;0.40;;;27.70;96.00;;;;;;4911086;29;20506;-75
2022/03/17 07:15:24;;;;;;;0.80;0.45;;;27.70;96.00;;;;;;4910297;29;20044;-73
2022/03/17 07:17:52;;;;;;;0.65;0.30;;;27.60;96.20;;;;;;4910569;29;20072;-75
2022/03/17 07:20:20;;;;;;;1.05;0.40;;;27.60;95.80;;;;;;4912577;29;20498;-75
2022/03/17 07:22:49;;;;;;;4.00;0.65;;;27.60;95.50;;;;;;4911816;29;20047;-75
2022/03/17 07:25:18;;;;;;;1.65;0.50;;;27.50;95.20;;;;;;4910497;29;20165;-75
2022/03/17 07:27:48;;;;;;;2.05;0.98;;;27.40;95.70;;;;;;4909379;29;20032;-75
2022/03/17 07:30:22;;;;;;;1.65;0.30;;;27.20;96.00;;;;;;4925088;29;20044;-78
2022/03/17 07:32:55;;;;;;;2.70;1.05;;;27.20;96.50;;;;;;4913026;29;20087;-74
2022/03/17 07:35:23;;;;;;;1.83;0.70;;;27.10;96.40;;;;;;4908934;29;20032;-74
2022/03/17 07:37:50;;;;;;;2.63;1.02;;;27.00;97.30;;;;;;4914776;29;20024;-75
2022/03/17 07:40:18;;;;;;;2.58;0.75;;;27.00;97.30;;;;;;4909832;29;20028;-75
2022/03/17 07:42:46;;;;;;;3.28;0.80;;;26.90;97.20;;;;;;4911623;29;20464;-74
2022/03/17 07:45:13;;;;;;;2.45;0.65;;;26.80;97.40;;;;;;4903112;29;20066;-75
2022/03/17 07:47:54;;;;;;;3.80;1.27;;;26.70;97.50;;;;;;4909169;29;20431;-72
2022/03/17 07:50:21;;;;;;;1.48;0.68;;;26.70;97.80;;;;;;4910303;29;20104;-75
2022/03/17 07:52:49;;;;;;;2.42;1.02;;;26.70;97.90;;;;;;4909900;29;20052;-74
2022/03/17 07:55:20;;;;;;;2.05;1.52;;;26.60;98.20;;;;;;4911180;29;20039;-75
2022/03/17 07:57:47;;;;;;;6.65;2.55;;;26.50;98.10;;;;;;4921698;29;20028;-75
2022/03/17 08:00:15;;;;;;;3.50;2.08;;;26.50;98.40;;;;;;4909808;29;20356;-75
2022/03/17 08:02:43;;;;;;;3.17;1.15;;;26.40;98.20;;;;;;4911342;29;20027;-74
2022/03/17 08:05:11;;;;;;;3.03;1.33;;;26.30;98.30;;;;;;4916351;29;20400;-75
2022/03/17 08:07:39;;;;;;;5.43;1.90;;;26.30;98.40;;;;;;4914781;29;20051;-75
2022/03/17 08:10:07;;;;;;;6.57;1.45;;;26.40;99.00;;;;;;4918289;29;20048;-75
2022/03/17 08:12:34;;;;;;;1.73;0.90;;;26.50;99.20;;;;;;4919136;29;20035;-75
2022/03/17 08:15:05;;;;;;;2.60;1.10;;;26.40;99.90;;;;;;4908804;29;20098;-74
2022/03/17 08:17:33;;;;;;;2.20;1.10;;;26.30;99.90;;;;;;4913079;29;20380;-74
2022/03/17 08:20:00;;;;;;;3.47;1.63;;;26.20;99.90;;;;;;4911165;29;20475;-73
2022/03/17 08:22:28;;;;;;;6.40;2.08;;;26.10;99.90;;;;;;4912793;29;20035;-74
2022/03/17 08:24:55;;;;;;;4.00;1.08;;;26.00;99.90;;;;;;4910076;29;20047;-73
2022/03/17 08:27:22;;;;;;;4.28;2.95;;;25.90;99.90;;;;;;4911237;29;20024;-73
2022/03/17 08:29:50;;;;;;;3.88;1.33;;;25.80;99.90;;;;;;4914221;29;20153;-74
2022/03/17 08:32:17;;;;;;;6.40;1.95;;;25.70;99.90;;;;;;4912358;29;20028;-73
2022/03/17 08:34:44;;;;;;;4.82;1.80;;;25.60;99.90;;;;;;4907452;29;20068;-73
2022/03/17 08:37:12;;;;;;;3.92;1.92;;;25.50;99.90;;;;;;4902639;29;20051;-74
2022/03/17 08:39:39;;;;;;;3.78;1.52;;;25.50;99.90;;;;;;4908934;29;20039;-75
2022/03/17 08:42:07;;;;;;;7.57;1.98;;;25.50;99.90;;;;;;4907626;29;20028;-74
2022/03/17 08:44:46;;;;;;;3.17;1.10;;;25.40;99.90;;;;;;5072975;27;20415;-74
2022/03/17 08:49:59;;;;;;;2.63;1.30;;;25.30;99.90;;;;;;5077731;28;20055;-74
2022/03/17 08:52:28;;;;;;;2.08;1.20;;;25.30;99.90;;;;;;5073713;28;20041;-75
2022/03/17 08:54:55;;;;;;;4.40;1.20;;;25.20;99.90;;;;;;5081508;28;20036;-75
2022/03/17 08:57:23;;;;;;;5.97;1.83;;;25.20;99.90;;;;;;5079390;28;20024;-76
2022/03/17 08:59:50;;;;;;;3.88;1.80;;;25.10;99.90;;;;;;5079115;28;20375;-75
2022/03/17 09:02:18;;;;;;;3.63;1.20;;;25.10;99.90;;;;;;5084714;28;20016;-74
2022/03/17 09:04:46;;;;;;;4.10;1.33;;;25.00;99.90;;;;;;5084785;28;20115;-75
2022/03/17 09:07:13;;;;;;;2.50;0.88;;;25.10;99.90;;;;;;5081128;28;20143;-75
2022/03/17 09:09:40;;;;;;;4.43;1.00;;;25.10;99.90;;;;;;5074274;28;20036;-74
2022/03/17 09:12:09;;;;;;;7.85;1.00;;;25.00;99.90;;;;;;5084025;28;20028;-75
2022/03/17 09:14:44;;;;;;;5.93;0.88;;;25.00;99.90;;;;;;5077622;28;20048;-75
2022/03/17 09:17:11;;;;;;;2.25;1.45;;;24.90;99.90;;;;;;5080308;28;20028;-75
2022/03/17 09:19:38;;;;;;;2.83;0.80;;;24.90;99.90;;;;;;5076329;28;20371;-75
2022/03/17 09:22:08;;;;;;;5.45;1.02;;;24.80;99.90;;;;;;5078996;28;20418;-74
2022/03/17 09:24:35;;;;;;;2.45;1.13;;;24.80;99.90;;;;;;5083198;28;20047;-74
2022/03/17 09:27:03;;;;;;;3.03;1.10;;;24.80;99.90;;;;;;5074514;28;20495;-74
2022/03/17 09:29:30;;;;;;;3.88;0.80;;;24.80;99.90;;;;;;5078664;28;20032;-74
2022/03/17 09:32:00;;;;;;;5.82;1.60;;;24.70;99.90;;;;;;5084858;28;20028;-73
2022/03/17 09:34:31;;;;;;;5.90;0.90;;;24.70;99.90;;;;;;5082133;28;20077;-74
2022/03/17 09:36:58;;;;;;;1.98;0.90;;;24.70;99.90;;;;;;5074996;28;20043;-74
2022/03/17 09:39:45;;;;;;;3.35;1.15;;;24.60;99.90;;;;;;5084549;28;20067;-75
2022/03/17 09:42:18;;;;;;;4.65;1.02;;;24.60;99.90;;;;;;5073593;28;20390;-75
2022/03/17 09:44:52;;;;;;;3.45;0.88;;;24.60;99.90;;;;;;5074954;28;20052;-74
2022/03/17 09:47:22;;;;;;;4.38;2.08;;;24.50;99.90;;;;;;5079241;28;20107;-76
2022/03/17 09:49:54;;;;;;;9.00;1.35;;;24.60;99.90;;;;;;5068516;28;20028;-75
2022/03/17 09:52:22;;;;;;;2.28;0.88;;;24.60;99.90;;;;;;5067146;28;20021;-75
2022/03/17 09:54:52;;;;;;;2.60;0.55;;;24.50;99.90;;;;;;5061138;28;20036;-74
2022/03/17 09:57:20;;;;;;;2.75;0.85;;;24.50;99.90;;;;;;5053876;28;20020;-75
2022/03/17 09:59:49;;;;;;;4.15;1.05;;;24.40;99.90;;;;;;5063170;28;20494;-75
2022/03/17 10:02:21;;;;;;;3.22;0.90;;;24.30;99.90;;;;;;5068289;28;20028;-75
2022/03/17 10:04:49;;;;;;;5.32;1.50;;;24.20;99.90;;;;;;5062792;28;20047;-74
2022/03/17 10:07:18;;;;;;;1.95;0.50;;;24.20;99.90;;;;;;5069760;28;20154;-74
2022/03/17 10:09:45;;;;;;;4.85;0.75;;;24.20;99.90;;;;;;5067218;28;20040;-74
2022/03/17 10:12:14;;;;;;;1.80;0.60;;;24.20;99.90;;;;;;5057726;28;20127;-75
2022/03/17 10:14:50;;;;;;;3.28;0.90;;;24.20;99.90;;;;;;5057699;28;20032;-74
2022/03/17 10:17:37;;;;;;;3.72;0.60;;;24.20;99.90;;;;;;5056123;28;20459;-75
2022/03/17 10:20:15;;;;;;;5.05;0.60;;;24.20;99.90;;;;;;5056989;28;20062;-74
2022/03/17 10:22:51;;;;;;;2.72;1.00;;;24.10;99.90;;;;;;5064454;28;20465;-76
2022/03/17 10:25:21;;;;;;;4.47;0.80;;;24.10;99.90;;;;;;5055022;28;20021;-75
2022/03/17 10:27:49;;;;;;;3.33;0.47;;;24.10;99.90;;;;;;5064470;28;20133;-74
2022/03/17 10:30:35;;;;;;;4.10;0.70;;;24.00;99.90;;;;;;5071272;28;20044;-74
2022/03/17 10:33:09;;;;;;;3.78;0.50;;;24.00;99.90;;;;;;5067492;28;20112;-74
2022/03/17 10:35:38;;;;;;;1.95;0.90;;;24.00;99.90;;;;;;5061289;28;20047;-74
2022/03/17 10:38:19;;;;;;;8.95;1.95;;;24.00;99.90;;;;;;5066360;28;20113;-75
2022/03/17 10:41:13;;;;;;;5.65;1.10;;;24.00;99.90;;;;;;5070607;28;20122;-74
2022/03/17 10:43:44;;;;;;;5.22;0.50;;;23.90;99.90;;;;;;5070476;28;20098;-74
2022/03/17 10:46:17;;;;;;;1.77;0.50;;;24.00;99.90;;;;;;5063698;28;20033;-74
2022/03/17 10:48:55;;;;;;;3.47;0.82;;;24.00;99.90;;;;;;5068045;28;20060;-75
2022/03/17 10:51:44;;;;;;;3.20;1.23;;;23.90;99.90;;;;;;5062225;28;20060;-75
2022/03/17 10:54:18;;;;;;;3.80;1.55;;;23.80;99.90;;;;;;5063903;28;20108;-75
2022/03/17 10:56:58;;;;;;;4.45;0.77;;;23.80;99.90;;;;;;5059464;28;20699;-76
2022/03/17 10:59:42;;;;;;;5.32;0.85;;;23.80;99.90;;;;;;5066168;28;20787;-76
2022/03/17 11:02:11;;;;;;;5.13;0.82;;;23.70;99.90;;;;;;5071985;28;20025;-77
2022/03/17 11:04:40;;;;;;;2.58;0.60;;;23.70;99.90;;;;;;5061772;28;20040;-76
2022/03/17 11:07:13;;;;;;;1.98;0.77;;;23.60;99.90;;;;;;5060388;28;20119;-77
2022/03/17 11:09:44;;;;;;;3.10;0.70;;;23.60;99.90;;;;;;5066840;28;20107;-77
2022/03/17 11:12:20;;;;;;;1.65;0.80;;;23.70;99.90;;;;;;5065080;28;20039;-78
2022/03/17 11:14:53;;;;;;;3.85;0.50;;;23.70;99.90;;;;;;5065236;28;20335;-75
2022/03/17 11:17:38;;;;;;;4.68;0.90;;;23.60;99.90;;;;;;5064222;28;20021;-75
2022/03/17 11:20:08;;;;;;;5.53;0.60;;;23.60;99.90;;;;;;5053442;28;20017;-74
2022/03/17 11:22:36;;;;;;;1.48;0.50;;;23.60;99.90;;;;;;5065526;28;20073;-75
2022/03/17 11:25:25;;;;;;;3.97;0.70;;;23.60;99.90;;;;;;5058181;28;20115;-75
2022/03/17 11:27:58;;;;;;;3.53;0.88;;;23.60;99.90;;;;;;5055619;28;20139;-75
2022/03/17 11:30:31;;;;;;;2.35;0.50;;;23.50;99.90;;;;;;5067636;28;20032;-75
2022/03/17 11:33:01;;;;;;;6.40;1.05;;;23.50;99.90;;;;;;5059976;28;20573;-77
2022/03/17 11:35:32;;;;;;;4.07;1.42;;;23.40;99.90;;;;;;5067269;28;20059;-75
2022/03/17 11:38:23;;;;;;;3.10;0.60;;;23.40;99.90;;;;;;5054158;28;20094;-74
2022/03/17 11:41:11;;;;;;;4.03;0.85;;;23.40;99.90;;;;;;5053861;28;20027;-75
2022/03/17 11:43:43;;;;;;;2.97;0.63;;;23.40;99.90;;;;;;5050806;28;20581;-73
2022/03/17 11:46:22;;;;;;;1.88;0.88;;;23.40;99.90;;;;;;5054671;28;20958;-74
2022/03/17 11:48:56;;;;;;;4.60;1.02;;;23.40;99.90;;;;;;5054070;28;20029;-74
2022/03/17 11:51:26;;;;;;;3.63;0.90;;;23.30;99.90;;;;;;5055907;28;20047;-74
2022/03/17 11:53:53;;;;;;;4.35;0.80;;;23.30;99.90;;;;;;5057461;28;20051;-74
2022/03/17 11:56:47;;;;;;;3.35;0.55;;;23.30;99.90;;;;;;5053693;28;20024;-75
2022/03/17 11:59:17;;;;;;;1.83;0.70;;;23.20;99.90;;;;;;5066308;28;20393;-76
2022/03/17 12:01:48;;;;;;;3.88;0.52;;;23.20;99.90;;;;;;5060951;28;20031;-76
2022/03/17 12:04:28;;;;;;;2.85;0.82;;;23.20;99.90;;;;;;5054444;28;20436;-74
2022/03/17 12:07:18;;;;;;;2.53;0.60;;;23.20;99.90;;;;;;5062066;28;20037;-74
2022/03/17 12:09:46;;;;;;;2.85;1.05;;;23.30;99.90;;;;;;5059815;28;20020;-74
2022/03/17 12:12:22;;;;;;;5.63;0.80;;;23.30;99.90;;;;;;5065689;28;20374;-76
2022/03/17 12:14:52;;;;;;;3.10;0.70;;;23.40;99.90;;;;;;5065067;28;20031;-75
2022/03/17 12:17:22;;;;;;;5.20;1.15;;;23.40;99.90;;;;;;5065820;28;20482;-75
2022/03/17 12:20:04;;;;;;;6.18;0.70;;;23.40;99.90;;;;;;5070105;28;20170;-75
2022/03/17 12:22:37;;;;;;;7.10;0.60;;;23.40;99.90;;;;;;5065461;28;20039;-75
2022/03/17 12:25:16;;;;;;;4.28;0.57;;;23.40;99.90;;;;;;5065929;28;20043;-75
2022/03/17 12:27:49;;;;;;;4.60;0.70;;;23.40;99.90;;;;;;5053216;28;20489;-76
2022/03/17 12:30:18;;;;;;;3.20;0.80;;;23.40;99.90;;;;;;5057106;28;20036;-75
2022/03/17 12:32:54;;;;;;;4.68;0.70;;;23.40;99.90;;;;;;5053584;28;20040;-75
2022/03/17 12:35:27;;;;;;;2.60;0.77;;;23.50;99.90;;;;;;5058984;28;20039;-76
2022/03/17 12:38:09;;;;;;;6.68;1.40;;;23.40;99.90;;;;;;5058882;28;20061;-74
2022/03/17 12:40:45;;;;;;;3.13;0.70;;;23.40;99.90;;;;;;5055897;28;20065;-73
2022/03/17 12:43:15;;;;;;;4.05;0.70;;;23.30;99.90;;;;;;5059797;28;20047;-74
2022/03/17 12:45:44;;;;;;;3.53;1.27;;;23.20;99.90;;;;;;5055616;28;20029;-74
2022/03/17 12:48:12;;;;;;;6.68;1.38;;;23.20;99.90;;;;;;5051304;28;20029;-75
2022/03/17 12:50:40;;;;;;;4.18;0.85;;;23.20;99.90;;;;;;5068495;28;20402;-74
2022/03/17 12:53:09;;;;;;;3.95;0.60;;;23.20;99.90;;;;;;5062194;28;20029;-74
2022/03/17 12:55:37;;;;;;;5.53;0.82;;;23.20;99.90;;;;;;5056993;28;20113;-76
2022/03/17 12:58:05;;;;;;;4.85;1.17;;;23.20;99.90;;;;;;5065821;28;20037;-75
2022/03/17 13:00:33;;;;;;;4.22;0.75;;;23.10;99.90;;;;;;5059780;28;20060;-74
2022/03/17 13:03:01;;;;;;;4.97;0.60;;;23.10;99.90;;;;;;5065784;28;20040;-74
2022/03/17 13:08:16;;;;;;;1.45;0.57;;;23.10;99.90;;;;;;5059896;28;20386;-74
2022/03/17 13:16:16;;;;;;;2.97;0.52;;;23.10;99.90;;;;;;5060139;28;20040;-74
2022/03/17 13:18:51;;;;;;;6.60;1.02;;;23.10;99.90;;;;;;5068099;28;20040;-74
2022/03/17 13:21:23;;;;;;;2.95;0.52;;;23.00;99.90;;;;;;5066659;28;20111;-75
2022/03/17 13:23:52;;;;;;;3.30;0.77;;;23.10;99.90;;;;;;5067191;28;20044;-77